Time;durP1;ratioP1;P1;durP2;ratioP2;P2;SDS_P1;SDS_P2;PMS_P1;PMS_P2;Temp;Humidity;BMP_temperature;BMP_pressure;BME280_temperature;BME280_humidity;BME280_pressure;Samples;Min_cycle;Max_cycle;Signal;HPM_P1;HPM_P2
2021/07/13 00:02:55;;;;;;;15.57;14.37;;;23.40;99.90;;;;;;6349052;28;20219;-62
2021/07/13 00:05:58;;;;;;;14.90;13.63;;;23.40;99.90;;;;;;6349213;28;20229;-63
2021/07/13 00:09:02;;;;;;;15.50;14.20;;;23.40;99.90;;;;;;6349254;28;20290;-62
2021/07/13 00:12:10;;;;;;;15.20;14.00;;;23.30;99.90;;;;;;6349447;28;20225;-62
2021/07/13 00:15:18;;;;;;;15.87;14.67;;;23.30;99.90;;;;;;6348438;27;20237;-62
2021/07/13 00:18:22;;;;;;;15.83;14.43;;;23.30;99.90;;;;;;6347971;28;20233;-62
2021/07/13 00:21:25;;;;;;;16.33;15.00;;;23.20;99.90;;;;;;6349374;28;20214;-62
2021/07/13 00:24:29;;;;;;;15.13;14.03;;;23.20;99.90;;;;;;6349428;28;20236;-63
2021/07/13 00:27:34;;;;;;;15.30;13.90;;;23.10;99.90;;;;;;6349264;28;20221;-63
2021/07/13 00:30:37;;;;;;;15.87;14.57;;;23.00;99.90;;;;;;6323132;28;20222;-63
2021/07/13 00:33:41;;;;;;;14.57;13.37;;;23.10;99.90;;;;;;6323675;28;20244;-63
2021/07/13 00:36:44;;;;;;;15.40;14.20;;;23.00;99.90;;;;;;6323513;28;20215;-62
2021/07/13 00:39:48;;;;;;;15.07;13.77;;;23.00;99.90;;;;;;6324773;28;20638;-63
2021/07/13 00:42:54;;;;;;;13.20;12.20;;;23.10;99.90;;;;;;6347735;28;20259;-62
2021/07/13 00:45:57;;;;;;;16.63;15.33;;;23.10;99.90;;;;;;6326376;28;20589;-63
2021/07/13 00:49:03;;;;;;;16.10;14.40;;;23.00;99.90;;;;;;6346202;28;20280;-62
2021/07/13 00:52:08;;;;;;;15.20;14.00;;;23.00;99.90;;;;;;6325994;28;20240;-62
2021/07/13 00:55:12;;;;;;;15.27;14.00;;;22.90;99.90;;;;;;6344612;28;20222;-63
2021/07/13 00:58:17;;;;;;;14.27;13.10;;;22.90;99.90;;;;;;6328486;28;20218;-62
2021/07/13 01:01:20;;;;;;;15.97;14.63;;;22.90;99.90;;;;;;6341620;27;20230;-62
2021/07/13 01:04:24;;;;;;;14.50;13.40;;;22.90;99.90;;;;;;6323863;28;20586;-66
2021/07/13 01:07:36;;;;;;;14.40;13.13;;;22.80;99.90;;;;;;6323618;28;20244;-63
2021/07/13 01:10:47;;;;;;;15.73;14.43;;;22.80;99.90;;;;;;6322830;28;20651;-62
2021/07/13 01:13:59;;;;;;;15.23;14.00;;;22.80;99.90;;;;;;6321378;28;20321;-62
2021/07/13 01:17:10;;;;;;;16.70;15.33;;;22.80;99.90;;;;;;6323207;28;20679;-62
2021/07/13 01:20:49;;;;;;;14.63;13.43;;;22.80;99.90;;;;;;6322655;28;20218;-62
2021/07/13 01:24:22;;;;;;;14.67;13.37;;;22.80;99.90;;;;;;6320602;28;20222;-62
2021/07/13 01:27:45;;;;;;;15.23;14.00;;;22.70;99.90;;;;;;6321982;28;20218;-62
2021/07/13 01:30:56;;;;;;;15.17;13.87;;;22.70;99.90;;;;;;6323027;28;20534;-62
2021/07/13 01:34:04;;;;;;;15.60;14.37;;;22.60;99.90;;;;;;6326126;28;20203;-69
2021/07/13 01:37:12;;;;;;;15.30;13.90;;;22.60;99.90;;;;;;6343502;28;20222;-68
2021/07/13 01:40:15;;;;;;;15.33;13.97;;;22.60;99.90;;;;;;6327964;28;20222;-63
2021/07/13 01:43:20;;;;;;;15.27;13.97;;;22.60;99.90;;;;;;6340995;28;20218;-62
2021/07/13 01:46:25;;;;;;;15.57;14.17;;;22.50;99.90;;;;;;6323146;28;20260;-67
2021/07/13 01:49:30;;;;;;;14.87;13.33;;;22.50;99.90;;;;;;6323932;28;20221;-67
2021/07/13 01:52:35;;;;;;;16.37;14.97;;;22.50;99.90;;;;;;6326158;28;20233;-67
2021/07/13 01:55:40;;;;;;;15.60;14.40;;;22.40;99.90;;;;;;6327844;28;20225;-62
2021/07/13 01:58:44;;;;;;;15.47;14.07;;;22.40;99.90;;;;;;6327934;28;20275;-74
2021/07/13 02:01:49;;;;;;;16.30;15.00;;;22.40;99.90;;;;;;6323127;28;20222;-74
2021/07/13 02:04:55;;;;;;;16.07;14.73;;;22.40;99.90;;;;;;6326433;28;20238;-75
2021/07/13 02:08:01;;;;;;;17.17;15.40;;;22.30;99.90;;;;;;6327797;28;20226;-68
2021/07/13 02:11:06;;;;;;;16.50;15.00;;;22.30;99.90;;;;;;6325958;28;20236;-68
2021/07/13 02:14:10;;;;;;;15.70;14.50;;;22.20;99.90;;;;;;6326918;28;20230;-75
2021/07/13 02:17:15;;;;;;;17.33;15.73;;;22.20;99.90;;;;;;6327335;28;20230;-75
2021/07/13 02:20:20;;;;;;;16.30;15.00;;;22.20;99.90;;;;;;6323116;28;20275;-74
2021/07/13 02:23:23;;;;;;;15.90;14.60;;;22.20;99.90;;;;;;6327186;28;20229;-74
2021/07/13 02:26:35;;;;;;;15.80;14.50;;;22.20;99.90;;;;;;6327077;28;20233;-75
2021/07/13 02:29:43;;;;;;;15.30;14.00;;;22.10;99.90;;;;;;6325895;28;20230;-75
2021/07/13 02:32:52;;;;;;;15.33;14.13;;;22.20;99.90;;;;;;6327683;28;20230;-74
2021/07/13 02:35:59;;;;;;;15.70;14.40;;;22.20;99.90;;;;;;6327725;28;20218;-75
2021/07/13 02:39:06;;;;;;;15.53;14.20;;;22.20;99.90;;;;;;6327080;28;20229;-68
2021/07/13 02:42:10;;;;;;;15.30;13.90;;;22.20;99.90;;;;;;6325794;28;20225;-68
2021/07/13 02:45:15;;;;;;;16.57;15.07;;;22.20;99.90;;;;;;6326754;28;20229;-66
2021/07/13 02:48:22;;;;;;;17.00;15.50;;;22.10;99.90;;;;;;6326968;28;20564;-75
2021/07/13 02:51:28;;;;;;;16.23;14.87;;;22.20;99.90;;;;;;6326762;28;20218;-68
2021/07/13 02:54:31;;;;;;;15.60;14.30;;;22.10;99.90;;;;;;6326323;28;20230;-62
2021/07/13 02:57:35;;;;;;;15.53;14.30;;;22.10;99.90;;;;;;6348669;28;20244;-63
2021/07/13 03:00:39;;;;;;;16.30;14.83;;;22.00;99.90;;;;;;6351067;27;20237;-62
2021/07/13 03:03:44;;;;;;;15.47;14.17;;;22.00;99.90;;;;;;6326258;28;20222;-68
2021/07/13 03:06:48;;;;;;;15.57;14.27;;;22.00;99.90;;;;;;6350765;28;20206;-67
2021/07/13 03:09:51;;;;;;;16.00;14.80;;;22.00;99.90;;;;;;6327519;28;20194;-68
2021/07/13 03:12:56;;;;;;;17.00;15.53;;;22.00;99.90;;;;;;6351327;28;20224;-66
2021/07/13 03:15:59;;;;;;;14.87;13.30;;;21.90;99.90;;;;;;6351409;28;20229;-67
2021/07/13 03:19:05;;;;;;;17.33;15.83;;;21.80;99.90;;;;;;6351230;28;20225;-67
2021/07/13 03:22:14;;;;;;;16.17;14.87;;;21.80;99.90;;;;;;6349952;28;20262;-67
2021/07/13 03:25:22;;;;;;;15.20;14.00;;;21.70;99.90;;;;;;6351060;28;20225;-67
2021/07/13 03:28:27;;;;;;;16.57;15.17;;;21.70;99.90;;;;;;6349658;28;20586;-67
2021/07/13 03:31:31;;;;;;;15.47;14.07;;;21.70;99.90;;;;;;6351038;28;20354;-66
2021/07/13 03:34:37;;;;;;;16.07;14.57;;;21.70;99.90;;;;;;6346786;28;20217;-66
2021/07/13 03:37:40;;;;;;;16.43;14.93;;;21.70;99.90;;;;;;6350584;28;20227;-66
2021/07/13 03:40:45;;;;;;;15.83;14.63;;;21.80;99.90;;;;;;6350687;28;20640;-66
2021/07/13 03:43:49;;;;;;;14.43;13.33;;;21.80;99.90;;;;;;6350580;28;20222;-66
2021/07/13 03:46:52;;;;;;;14.70;13.50;;;21.80;99.90;;;;;;6349110;28;20221;-67
2021/07/13 03:49:57;;;;;;;17.47;15.77;;;21.90;99.90;;;;;;6350698;28;20358;-65
2021/07/13 03:53:01;;;;;;;16.70;15.33;;;21.90;99.90;;;;;;6350425;28;20315;-65
2021/07/13 03:56:05;;;;;;;16.90;15.50;;;21.90;99.90;;;;;;6346094;28;20314;-65
2021/07/13 03:59:09;;;;;;;17.10;15.70;;;21.90;99.90;;;;;;6350183;28;20217;-63
2021/07/13 04:02:12;;;;;;;17.17;15.57;;;21.80;99.90;;;;;;6350234;28;20686;-62
2021/07/13 04:05:17;;;;;;;16.30;14.73;;;21.90;99.90;;;;;;6349842;28;20224;-68
2021/07/13 04:08:21;;;;;;;17.17;15.73;;;21.90;99.90;;;;;;6348123;28;20222;-63
2021/07/13 04:11:24;;;;;;;17.10;15.83;;;22.00;99.90;;;;;;6335382;28;20602;-62
2021/07/13 04:14:27;;;;;;;15.93;14.73;;;22.00;99.90;;;;;;6349064;28;20724;-73
2021/07/13 04:17:30;;;;;;;15.83;14.53;;;22.00;99.90;;;;;;6349519;28;20237;-62
2021/07/13 04:20:35;;;;;;;15.43;14.13;;;22.10;99.90;;;;;;6349803;28;20214;-73
2021/07/13 04:23:38;;;;;;;17.00;15.70;;;22.00;99.90;;;;;;6349486;28;20224;-69
2021/07/13 04:26:42;;;;;;;16.33;14.73;;;22.00;99.90;;;;;;6349679;28;20232;-62
2021/07/13 04:29:45;;;;;;;16.73;15.23;;;22.00;99.90;;;;;;6349237;28;20221;-62
2021/07/13 04:32:48;;;;;;;16.70;15.10;;;22.10;99.90;;;;;;6349402;28;20225;-69
2021/07/13 04:35:53;;;;;;;17.13;15.83;;;22.20;99.90;;;;;;6347508;28;20233;-74
2021/07/13 04:38:56;;;;;;;16.20;14.80;;;22.30;99.90;;;;;;6349411;28;20214;-63
2021/07/13 04:42:00;;;;;;;16.53;15.17;;;22.40;99.90;;;;;;6349146;28;20217;-63
2021/07/13 04:45:03;;;;;;;15.00;13.90;;;22.50;99.90;;;;;;6348860;28;20221;-73
2021/07/13 04:48:08;;;;;;;16.97;15.57;;;22.60;99.90;;;;;;6347392;28;20221;-62
2021/07/13 04:51:12;;;;;;;16.20;14.73;;;22.70;99.90;;;;;;6348856;28;20234;-62
2021/07/13 04:54:15;;;;;;;16.17;14.77;;;22.70;99.90;;;;;;6348945;28;20228;-62
2021/07/13 04:57:19;;;;;;;16.40;15.13;;;22.80;99.90;;;;;;6348659;28;20236;-62
2021/07/13 05:00:22;;;;;;;17.50;15.80;;;22.90;99.90;;;;;;6347301;28;20243;-62
2021/07/13 05:03:25;;;;;;;16.83;15.13;;;23.10;99.90;;;;;;6348567;28;20221;-64
2021/07/13 05:06:30;;;;;;;16.47;14.83;;;23.10;99.90;;;;;;6348692;28;20221;-61
2021/07/13 05:09:34;;;;;;;16.20;14.67;;;23.20;99.90;;;;;;6348552;28;20217;-73
2021/07/13 05:12:37;;;;;;;17.17;15.60;;;23.30;99.90;;;;;;6324235;28;20218;-64
2021/07/13 05:15:41;;;;;;;16.80;15.40;;;23.40;99.90;;;;;;6313552;28;20229;-63
2021/07/13 05:18:44;;;;;;;16.83;15.43;;;23.60;99.90;;;;;;6322613;28;20230;-63
2021/07/13 05:21:55;;;;;;;15.10;13.90;;;23.60;99.90;;;;;;6324148;28;20190;-63
2021/07/13 05:24:58;;;;;;;16.87;15.17;;;23.80;99.90;;;;;;6349332;28;20227;-63
2021/07/13 05:28:02;;;;;;;17.33;15.80;;;23.90;99.90;;;;;;6328839;28;20194;-62
2021/07/13 05:31:05;;;;;;;18.10;16.27;;;24.00;99.90;;;;;;6326260;28;20557;-63
2021/07/13 05:34:08;;;;;;;18.10;16.27;;;24.00;99.90;;;;;;6328216;28;20571;-63
2021/07/13 05:37:13;;;;;;;17.17;15.03;;;24.10;99.90;;;;;;6328369;28;20233;-63
2021/07/13 05:40:17;;;;;;;18.57;16.77;;;24.20;99.90;;;;;;6328539;28;20222;-64
2021/07/13 05:43:20;;;;;;;18.80;17.20;;;24.40;99.90;;;;;;6326168;28;20245;-63
2021/07/13 05:46:23;;;;;;;17.50;16.00;;;24.50;99.90;;;;;;6328217;28;20222;-61
2021/07/13 05:49:26;;;;;;;16.00;14.60;;;24.60;99.90;;;;;;6327698;28;20563;-61
2021/07/13 05:52:31;;;;;;;15.83;14.23;;;24.60;99.90;;;;;;6328235;28;20218;-61
2021/07/13 05:55:34;;;;;;;17.97;16.17;;;24.80;99.90;;;;;;6327300;28;20683;-61
2021/07/13 05:58:38;;;;;;;17.37;15.73;;;25.00;99.90;;;;;;6325992;28;20702;-62
2021/07/13 06:01:41;;;;;;;17.17;15.40;;;25.00;99.90;;;;;;6327553;28;20229;-62
2021/07/13 06:04:44;;;;;;;17.50;15.87;;;25.20;99.90;;;;;;6327622;28;20225;-62
2021/07/13 06:07:50;;;;;;;17.50;15.90;;;25.40;99.90;;;;;;6327750;28;20561;-72
2021/07/13 06:10:53;;;;;;;16.70;15.20;;;25.50;99.90;;;;;;6326331;28;20225;-73
2021/07/13 06:13:57;;;;;;;17.40;15.93;;;25.80;99.80;;;;;;6327699;28;20217;-73
2021/07/13 06:17:00;;;;;;;18.30;16.40;;;26.00;99.10;;;;;;6324089;28;20744;-73
2021/07/13 06:20:04;;;;;;;16.33;14.93;;;26.30;98.60;;;;;;6327890;28;20229;-62
2021/07/13 06:23:09;;;;;;;17.67;16.07;;;26.70;98.00;;;;;;6325377;28;20674;-64
2021/07/13 06:26:12;;;;;;;16.50;15.20;;;27.10;97.20;;;;;;6327017;28;20238;-68
2021/07/13 06:29:15;;;;;;;16.13;14.70;;;27.40;96.70;;;;;;6326803;28;20702;-73
2021/07/13 06:32:19;;;;;;;14.30;13.00;;;27.80;95.60;;;;;;6327067;28;20541;-73
2021/07/13 06:35:22;;;;;;;16.83;15.10;;;28.20;94.60;;;;;;6324242;28;20226;-61
2021/07/13 06:38:27;;;;;;;15.83;14.43;;;28.40;94.10;;;;;;6326816;28;20243;-62
2021/07/13 06:41:30;;;;;;;19.47;15.57;;;28.90;93.30;;;;;;6326786;28;20222;-69
2021/07/13 06:44:33;;;;;;;15.50;13.97;;;29.40;92.00;;;;;;6326442;28;20561;-62
2021/07/13 06:47:36;;;;;;;16.00;14.70;;;29.80;90.70;;;;;;6324824;28;20229;-69
2021/07/13 06:50:40;;;;;;;15.83;14.30;;;30.20;89.80;;;;;;6326423;28;20222;-62
2021/07/13 06:53:44;;;;;;;16.07;14.67;;;30.50;87.80;;;;;;6326654;28;20222;-63
2021/07/13 06:56:47;;;;;;;16.03;14.67;;;31.00;86.10;;;;;;6326109;28;20291;-69
2021/07/13 06:59:51;;;;;;;13.95;12.77;;;31.20;84.00;;;;;;6324722;28;20655;-73
2021/07/13 07:02:54;;;;;;;15.13;13.43;;;31.60;82.40;;;;;;6326033;28;20232;-69
2021/07/13 07:05:57;;;;;;;15.73;14.32;;;31.90;80.00;;;;;;6326059;28;20232;-69
2021/07/13 07:09:05;;;;;;;15.55;13.95;;;32.50;77.10;;;;;;6326000;28;20351;-62
2021/07/13 07:12:08;;;;;;;16.27;14.68;;;33.10;75.10;;;;;;6324425;28;20224;-62
2021/07/13 07:15:12;;;;;;;17.00;15.23;;;33.30;73.20;;;;;;6325577;28;20224;-73
2021/07/13 07:18:15;;;;;;;16.00;14.55;;;33.90;71.70;;;;;;6325750;28;20229;-63
2021/07/13 07:21:19;;;;;;;16.55;15.10;;;34.30;69.80;;;;;;6325247;28;20232;-62
2021/07/13 07:24:23;;;;;;;19.20;14.05;;;34.40;67.90;;;;;;6314718;28;20692;-74
2021/07/13 07:27:26;;;;;;;16.00;14.55;;;34.30;68.20;;;;;;6325783;28;20225;-73
2021/07/13 07:30:30;;;;;;;19.42;14.88;;;34.50;66.90;;;;;;6325577;28;20553;-74
2021/07/13 07:33:33;;;;;;;15.68;14.48;;;34.90;65.20;;;;;;6325462;28;20697;-73
2021/07/13 07:36:37;;;;;;;15.05;13.82;;;35.10;64.70;;;;;;6325445;28;20233;-73
2021/07/13 07:39:42;;;;;;;15.00;13.90;;;35.60;63.20;;;;;;6326602;28;20314;-75
2021/07/13 07:42:47;;;;;;;13.57;12.52;;;35.50;61.80;;;;;;6325071;28;20210;-73
2021/07/13 07:45:50;;;;;;;14.45;13.35;;;35.10;61.80;;;;;;6325265;28;20663;-73
2021/07/13 07:48:53;;;;;;;15.02;13.90;;;35.80;59.50;;;;;;6345109;27;20197;-65
2021/07/13 07:51:57;;;;;;;14.60;13.38;;;36.20;59.00;;;;;;6322032;28;20541;-65
2021/07/13 07:55:03;;;;;;;14.65;13.25;;;35.90;59.00;;;;;;6326733;28;20233;-66
2021/07/13 07:58:06;;;;;;;13.85;12.80;;;35.90;59.50;;;;;;6347365;27;20221;-63
2021/07/13 08:01:09;;;;;;;13.27;12.27;;;35.80;58.80;;;;;;6325500;28;20236;-67
2021/07/13 08:04:13;;;;;;;14.52;13.43;;;36.20;57.90;;;;;;6325354;28;20253;-66
2021/07/13 08:07:18;;;;;;;12.48;11.57;;;36.00;57.30;;;;;;6329681;28;20225;-68
2021/07/13 08:10:23;;;;;;;15.00;12.95;;;35.40;57.00;;;;;;6350834;28;20228;-66
2021/07/13 08:13:26;;;;;;;13.93;12.95;;;35.00;58.70;;;;;;6350629;28;20687;-69
2021/07/13 08:16:29;;;;;;;13.73;12.73;;;34.90;58.80;;;;;;6350115;27;20225;-70
2021/07/13 08:19:38;;;;;;;15.32;14.00;;;34.70;59.20;;;;;;6352594;28;20284;-72
2021/07/13 08:22:45;;;;;;;13.95;12.77;;;34.70;59.10;;;;;;6350025;28;20565;-78
2021/07/13 08:25:50;;;;;;;12.63;11.63;;;34.70;58.70;;;;;;6338533;27;20229;-66
2021/07/13 08:28:53;;;;;;;12.43;11.07;;;34.50;58.70;;;;;;6348711;28;20654;-71
2021/07/13 08:32:01;;;;;;;11.77;10.85;;;34.20;58.00;;;;;;6349409;28;20750;-67
2021/07/13 08:35:05;;;;;;;11.63;10.73;;;33.80;58.70;;;;;;6346289;28;20681;-63
2021/07/13 08:38:08;;;;;;;11.85;11.00;;;33.70;59.40;;;;;;6349359;28;20225;-64
2021/07/13 08:41:13;;;;;;;12.40;11.05;;;33.60;59.70;;;;;;6348358;28;20229;-62
2021/07/13 08:44:17;;;;;;;13.02;12.02;;;33.60;59.40;;;;;;6347763;28;20302;-62
2021/07/13 08:47:20;;;;;;;12.43;11.32;;;33.40;60.00;;;;;;6348649;27;20221;-62
2021/07/13 08:50:23;;;;;;;11.18;10.20;;;33.40;59.90;;;;;;6348973;28;20570;-63
2021/07/13 08:53:27;;;;;;;16.33;11.90;;;33.60;59.40;;;;;;6349150;27;20232;-65
2021/07/13 08:56:32;;;;;;;11.32;10.43;;;33.40;59.30;;;;;;6352264;28;20216;-71
2021/07/13 08:59:35;;;;;;;11.73;10.82;;;33.60;58.90;;;;;;6362080;27;20221;-76
2021/07/13 09:03:10;;;;;;;10.48;9.77;;;33.40;59.10;;;;;;6350725;28;20221;-68
2021/07/13 09:06:13;;;;;;;11.73;10.65;;;33.20;59.10;;;;;;6346056;28;20217;-70
2021/07/13 09:09:27;;;;;;;10.73;10.02;;;33.50;59.00;;;;;;6347889;28;20229;-70
2021/07/13 09:12:31;;;;;;;10.82;10.00;;;33.50;58.90;;;;;;6352656;28;20698;-64
2021/07/13 09:15:35;;;;;;;12.77;11.77;;;33.60;58.20;;;;;;6350672;28;20225;-65
2021/07/13 09:18:39;;;;;;;11.77;10.77;;;33.80;58.10;;;;;;6347132;28;20221;-67
2021/07/13 09:21:42;;;;;;;10.88;9.98;;;33.90;58.40;;;;;;6348346;28;20696;-71
2021/07/13 09:24:46;;;;;;;12.75;11.85;;;33.90;58.90;;;;;;6347885;28;20558;-68
2021/07/13 09:28:08;;;;;;;11.13;10.23;;;34.20;58.40;;;;;;6343556;28;20196;-67
2021/07/13 09:31:16;;;;;;;12.55;11.07;;;34.30;58.10;;;;;;6345816;28;20224;-69
2021/07/13 09:34:20;;;;;;;11.65;10.63;;;34.30;57.50;;;;;;6348197;28;20320;-74
2021/07/13 09:37:26;;;;;;;12.38;11.13;;;34.30;57.50;;;;;;6350160;28;20247;-76
2021/07/13 09:40:36;;;;;;;10.93;9.57;;;34.30;57.40;;;;;;6349609;28;20221;-67
2021/07/13 09:43:46;;;;;;;14.40;11.63;;;34.50;57.40;;;;;;6346641;28;20289;-69
2021/07/13 09:46:50;;;;;;;11.13;10.23;;;34.50;56.40;;;;;;6348070;28;20220;-68
2021/07/13 09:49:54;;;;;;;13.77;11.48;;;34.50;56.20;;;;;;6344038;28;20300;-71
2021/07/13 09:52:59;;;;;;;12.05;10.95;;;34.60;55.90;;;;;;6347994;28;20554;-65
2021/07/13 09:56:02;;;;;;;11.60;10.60;;;34.20;56.30;;;;;;6347431;27;20213;-64
2021/07/13 09:59:07;;;;;;;10.88;10.02;;;34.20;56.20;;;;;;6348848;27;20236;-64
2021/07/13 10:02:11;;;;;;;11.98;10.90;;;34.10;56.00;;;;;;6347828;28;20229;-70
2021/07/13 10:05:17;;;;;;;10.73;9.85;;;34.30;56.40;;;;;;6348492;28;20321;-70
2021/07/13 10:08:22;;;;;;;11.77;10.55;;;34.30;56.20;;;;;;6348241;28;20239;-70
2021/07/13 10:11:26;;;;;;;10.82;10.02;;;34.20;56.30;;;;;;6350607;28;20221;-72
2021/07/13 10:14:31;;;;;;;10.05;9.32;;;34.40;56.60;;;;;;6345196;28;20282;-71
2021/07/13 10:17:34;;;;;;;10.23;9.35;;;34.30;56.10;;;;;;6322389;28;20665;-72
2021/07/13 10:20:40;;;;;;;10.80;10.00;;;33.90;56.70;;;;;;6326771;28;20248;-65
2021/07/13 10:23:44;;;;;;;10.73;9.85;;;34.30;57.10;;;;;;6314513;28;20234;-72
2021/07/13 10:26:50;;;;;;;11.15;10.25;;;34.50;56.00;;;;;;6327176;28;20229;-70
2021/07/13 10:29:56;;;;;;;9.90;9.20;;;34.90;55.50;;;;;;6320070;28;20222;-71
2021/07/13 10:33:00;;;;;;;10.25;9.05;;;34.70;54.10;;;;;;6343931;28;20236;-71
2021/07/13 10:36:32;;;;;;;10.40;9.70;;;34.80;54.50;;;;;;6307659;27;20244;-65
2021/07/13 10:39:35;;;;;;;11.32;10.10;;;34.80;54.60;;;;;;6301273;28;20315;-67
2021/07/13 10:42:50;;;;;;;9.63;8.80;;;35.00;54.30;;;;;;6317332;28;20233;-66
2021/07/13 10:46:08;;;;;;;9.68;8.98;;;35.20;54.00;;;;;;6328089;28;20226;-66
2021/07/13 10:49:21;;;;;;;10.60;9.75;;;35.40;53.30;;;;;;6348615;27;20304;-65
2021/07/13 10:52:50;;;;;;;10.60;9.70;;;35.50;52.80;;;;;;6325292;28;20230;-65
2021/07/13 10:56:03;;;;;;;9.13;8.52;;;35.50;52.50;;;;;;6326814;28;20318;-70
2021/07/13 10:59:23;;;;;;;8.65;7.82;;;35.40;51.60;;;;;;6326270;28;20719;-66
2021/07/13 11:02:34;;;;;;;8.73;8.02;;;35.30;52.10;;;;;;6326335;28;20221;-65
2021/07/13 11:05:42;;;;;;;11.10;7.95;;;35.10;51.60;;;;;;6326722;28;20230;-72
2021/07/13 11:08:53;;;;;;;10.40;8.35;;;34.90;51.80;;;;;;6325876;28;20237;-66
2021/07/13 11:12:27;;;;;;;8.50;7.85;;;35.10;52.00;;;;;;6326455;28;20226;-65
2021/07/13 11:15:31;;;;;;;8.68;7.88;;;35.30;51.50;;;;;;6315226;28;20233;-65
2021/07/13 11:18:37;;;;;;;6.07;5.55;;;35.40;51.30;;;;;;6325995;28;20229;-66
2021/07/13 11:21:42;;;;;;;5.60;5.20;;;35.70;47.00;;;;;;6325407;28;20255;-65
2021/07/13 11:24:46;;;;;;;7.20;5.32;;;35.40;45.60;;;;;;6325788;27;20244;-65
2021/07/13 11:28:00;;;;;;;7.93;5.47;;;35.30;45.90;;;;;;6325809;28;20212;-65
2021/07/13 11:31:03;;;;;;;5.57;5.05;;;35.50;45.50;;;;;;6326131;28;20233;-64
2021/07/13 11:34:10;;;;;;;7.10;5.68;;;35.80;45.30;;;;;;6325650;28;20221;-65
2021/07/13 11:37:15;;;;;;;7.72;5.47;;;35.80;45.00;;;;;;6317149;28;20229;-64
2021/07/13 11:40:19;;;;;;;6.00;5.47;;;35.70;45.00;;;;;;6325305;27;20236;-65
2021/07/13 11:43:26;;;;;;;4.88;4.38;;;35.60;44.80;;;;;;6325560;28;20225;-65
2021/07/13 11:46:31;;;;;;;5.10;4.57;;;35.50;44.90;;;;;;6321396;28;20245;-65
2021/07/13 11:49:36;;;;;;;5.18;4.78;;;35.80;45.00;;;;;;6323577;28;20229;-64
2021/07/13 11:52:40;;;;;;;7.28;5.25;;;35.30;45.90;;;;;;6319838;28;20358;-64
2021/07/13 11:55:43;;;;;;;7.50;5.38;;;35.00;46.00;;;;;;6322846;28;20289;-64
2021/07/13 11:58:50;;;;;;;7.72;4.90;;;35.20;45.70;;;;;;6323158;28;20229;-64
2021/07/13 12:01:55;;;;;;;5.57;4.05;;;35.20;45.40;;;;;;6324227;27;20233;-64
2021/07/13 12:04:59;;;;;;;5.85;5.05;;;35.40;45.30;;;;;;6326458;28;20671;-65
2021/07/13 12:08:03;;;;;;;7.80;5.07;;;35.60;44.50;;;;;;6321094;28;20244;-67
2021/07/13 12:11:06;;;;;;;5.43;4.60;;;35.80;44.00;;;;;;6322131;27;20229;-62
2021/07/13 12:14:12;;;;;;;4.50;4.20;;;35.80;44.00;;;;;;6321713;28;20237;-62
2021/07/13 12:17:16;;;;;;;5.25;4.57;;;35.80;44.00;;;;;;6321746;28;20233;-65
2021/07/13 12:20:22;;;;;;;5.10;4.70;;;35.50;43.80;;;;;;6322201;27;20237;-64
2021/07/13 12:23:25;;;;;;;5.32;4.82;;;35.40;43.90;;;;;;6322410;28;20245;-67
2021/07/13 12:26:31;;;;;;;5.53;5.00;;;35.30;44.30;;;;;;6322545;27;20245;-62
2021/07/13 12:29:37;;;;;;;5.53;4.72;;;35.30;44.20;;;;;;6322227;28;20229;-68
2021/07/13 12:32:41;;;;;;;9.05;4.85;;;35.00;44.40;;;;;;6321921;27;20244;-66
2021/07/13 12:35:46;;;;;;;8.60;5.45;;;34.80;44.40;;;;;;6321801;28;20682;-65
2021/07/13 12:38:49;;;;;;;7.40;5.20;;;34.70;44.20;;;;;;6322299;27;20234;-67
2021/07/13 12:42:01;;;;;;;7.53;5.97;;;34.50;44.50;;;;;;6317510;28;20233;-63
2021/07/13 12:45:07;;;;;;;5.35;4.75;;;34.40;45.10;;;;;;6322029;27;20382;-69
2021/07/13 12:48:11;;;;;;;6.63;5.40;;;34.50;44.70;;;;;;6323314;28;20234;-65
2021/07/13 12:51:24;;;;;;;5.75;5.22;;;34.50;44.80;;;;;;6322870;28;20226;-64
2021/07/13 12:54:29;;;;;;;6.18;5.20;;;34.60;44.40;;;;;;6318454;28;20221;-69
2021/07/13 12:57:34;;;;;;;6.90;5.82;;;34.50;44.60;;;;;;6321314;28;20217;-63
2021/07/13 13:00:39;;;;;;;7.93;5.65;;;34.50;44.70;;;;;;6321796;28;20230;-67
2021/07/13 13:03:44;;;;;;;5.03;4.72;;;34.70;45.30;;;;;;6321557;28;20713;-63
2021/07/13 13:06:48;;;;;;;5.63;5.13;;;34.40;45.70;;;;;;6322405;27;20225;-66
2021/07/13 13:09:52;;;;;;;5.10;4.60;;;34.60;45.80;;;;;;6321469;28;20204;-65
2021/07/13 13:12:55;;;;;;;8.90;5.75;;;34.90;45.70;;;;;;6322059;28;20194;-71
2021/07/13 13:16:01;;;;;;;6.15;5.00;;;35.00;44.80;;;;;;6321622;28;20248;-71
2021/07/13 13:19:05;;;;;;;5.70;5.20;;;35.00;44.50;;;;;;6321528;28;20232;-65
2021/07/13 13:22:10;;;;;;;6.07;5.50;;;34.90;44.70;;;;;;6322055;28;20232;-72
2021/07/13 13:25:13;;;;;;;8.10;6.43;;;34.80;44.60;;;;;;6321846;28;20245;-63
2021/07/13 13:28:17;;;;;;;8.70;5.20;;;34.70;44.70;;;;;;6321997;28;20278;-72
2021/07/13 13:31:21;;;;;;;7.45;5.68;;;34.80;44.60;;;;;;6321343;28;20549;-66
2021/07/13 13:34:25;;;;;;;8.85;5.60;;;34.90;44.10;;;;;;6321595;28;20235;-73
2021/07/13 13:37:35;;;;;;;5.78;5.18;;;35.00;44.30;;;;;;6319921;28;20557;-71
2021/07/13 13:40:40;;;;;;;7.60;6.07;;;34.90;43.70;;;;;;6320856;28;20217;-71
2021/07/13 13:43:44;;;;;;;10.07;5.38;;;35.00;44.00;;;;;;6316848;28;20225;-66
2021/07/13 13:46:47;;;;;;;6.88;5.72;;;34.90;44.30;;;;;;6326294;28;20225;-71
2021/07/13 13:49:51;;;;;;;7.25;6.30;;;34.90;44.40;;;;;;6326307;28;20554;-68
2021/07/13 13:52:56;;;;;;;7.07;5.50;;;34.70;44.40;;;;;;6327583;28;20236;-72
2021/07/13 13:55:59;;;;;;;5.68;5.07;;;34.80;44.50;;;;;;6326263;28;20229;-77
2021/07/13 13:59:02;;;;;;;7.20;5.75;;;34.90;44.40;;;;;;6309596;28;20559;-64
2021/07/13 14:02:05;;;;;;;7.55;6.72;;;35.00;44.30;;;;;;6301171;28;20222;-66
2021/07/13 14:05:10;;;;;;;5.75;5.13;;;34.90;44.30;;;;;;6300709;28;20275;-70
2021/07/13 14:08:14;;;;;;;6.47;5.30;;;34.90;44.50;;;;;;6301203;28;20222;-66
2021/07/13 14:11:19;;;;;;;6.47;5.88;;;35.00;44.60;;;;;;6300634;28;20226;-67
2021/07/13 14:14:23;;;;;;;6.80;5.32;;;34.90;44.40;;;;;;6300849;28;20317;-70
2021/07/13 14:17:27;;;;;;;7.43;5.70;;;34.80;44.50;;;;;;6300385;28;20241;-69
2021/07/13 14:20:30;;;;;;;6.05;5.47;;;35.00;44.50;;;;;;6303473;28;20694;-68
2021/07/13 14:23:35;;;;;;;5.78;5.05;;;35.00;44.40;;;;;;6340365;28;20561;-68
2021/07/13 14:26:38;;;;;;;6.55;5.85;;;35.00;44.90;;;;;;6335166;27;20240;-70
2021/07/13 14:29:42;;;;;;;8.48;5.68;;;34.90;44.50;;;;;;6318680;28;20224;-70
2021/07/13 14:32:45;;;;;;;7.03;5.75;;;34.80;44.40;;;;;;6314132;28;20234;-68
2021/07/13 14:35:49;;;;;;;13.73;6.63;;;34.70;44.80;;;;;;6299916;28;20305;-69
2021/07/13 14:38:53;;;;;;;10.85;6.43;;;34.70;44.80;;;;;;6340466;28;20670;-70
2021/07/13 14:41:57;;;;;;;8.60;5.13;;;34.60;45.00;;;;;;6332089;27;20237;-69
2021/07/13 14:45:00;;;;;;;5.65;4.80;;;34.70;45.10;;;;;;6324727;28;20240;-68
2021/07/13 14:48:04;;;;;;;8.02;5.70;;;34.60;44.80;;;;;;6300147;28;20225;-69
2021/07/13 14:51:07;;;;;;;9.10;6.18;;;34.60;45.00;;;;;;6300199;28;20233;-69
2021/07/13 14:54:12;;;;;;;6.72;5.43;;;34.60;45.10;;;;;;6321460;28;20241;-68
2021/07/13 14:57:15;;;;;;;8.50;5.65;;;34.60;45.30;;;;;;6313265;28;20233;-69
2021/07/13 15:00:20;;;;;;;8.90;6.07;;;34.30;45.60;;;;;;6323542;28;20541;-69
2021/07/13 15:03:23;;;;;;;7.85;6.13;;;33.90;46.50;;;;;;6312612;28;20351;-68
2021/07/13 15:06:26;;;;;;;9.90;6.38;;;33.60;47.50;;;;;;6324196;28;20233;-65
2021/07/13 15:09:31;;;;;;;6.97;6.32;;;33.40;47.80;;;;;;6346947;28;20771;-69
2021/07/13 15:12:34;;;;;;;6.88;6.05;;;33.30;48.40;;;;;;6325764;27;20225;-68
2021/07/13 15:15:38;;;;;;;6.72;5.95;;;33.00;48.60;;;;;;6323885;28;20244;-69
2021/07/13 15:18:42;;;;;;;6.55;5.85;;;32.90;48.40;;;;;;6324275;28;20679;-71
2021/07/13 15:21:45;;;;;;;13.48;6.53;;;32.60;48.80;;;;;;6323880;28;20639;-66
2021/07/13 15:24:49;;;;;;;6.75;6.07;;;32.50;48.80;;;;;;6323457;28;20702;-67
2021/07/13 15:27:53;;;;;;;6.60;5.95;;;32.30;49.20;;;;;;6324395;28;20209;-67
2021/07/13 15:30:56;;;;;;;9.40;6.38;;;32.20;49.40;;;;;;6323569;28;20623;-64
2021/07/13 15:34:00;;;;;;;7.80;5.63;;;32.10;49.60;;;;;;6324445;28;20208;-69
2021/07/13 15:37:04;;;;;;;8.40;6.07;;;31.90;49.90;;;;;;6326105;28;20216;-69
2021/07/13 15:40:10;;;;;;;10.95;5.72;;;31.80;50.20;;;;;;6346260;27;20233;-68
2021/07/13 15:43:14;;;;;;;6.80;6.25;;;31.70;50.40;;;;;;6321868;28;20221;-67
2021/07/13 15:46:17;;;;;;;8.80;5.70;;;31.70;50.60;;;;;;6327554;28;20693;-67
2021/07/13 15:49:20;;;;;;;8.20;6.88;;;31.80;50.70;;;;;;6342394;27;20225;-68